createdAt,value
2022-09-03T00:02:31.685Z,15.90
2022-09-03T00:05:23.885Z,15.80
2022-09-03T00:08:20.995Z,15.70
2022-09-03T00:10:59.366Z,15.70
2022-09-03T00:13:49.457Z,15.70
2022-09-03T00:16:21.600Z,15.60
2022-09-03T00:18:54.400Z,15.60
2022-09-03T00:21:44.090Z,15.50
2022-09-03T00:24:15.077Z,15.50
2022-09-03T00:26:50.181Z,15.40
2022-09-03T00:29:35.328Z,15.40
2022-09-03T00:32:13.895Z,15.40
2022-09-03T00:34:44.602Z,15.30
2022-09-03T00:37:15.385Z,15.30
2022-09-03T00:39:42.855Z,15.20
2022-09-03T00:42:38.837Z,15.10
2022-09-03T00:45:38.549Z,15.00
2022-09-03T00:48:17.477Z,15.00
2022-09-03T00:50:50.059Z,14.90
2022-09-03T00:53:43.289Z,14.80
2022-09-03T00:56:41.748Z,14.70
2022-09-03T00:59:20.409Z,14.60
2022-09-03T01:01:47.823Z,14.60
2022-09-03T01:04:40.602Z,14.50
2022-09-03T01:07:32.648Z,14.50
2022-09-03T01:10:27.294Z,14.40
2022-09-03T01:12:56.897Z,14.30
2022-09-03T01:15:48.423Z,14.30
2022-09-03T01:18:52.201Z,14.20
2022-09-03T01:21:46.962Z,14.20
2022-09-03T01:24:31.729Z,14.10
2022-09-03T01:27:17.294Z,14.00
2022-09-03T01:29:58.633Z,14.00
2022-09-03T01:32:34.452Z,13.90
2022-09-03T01:35:13.846Z,13.90
2022-09-03T01:37:49.141Z,13.80
2022-09-03T01:40:30.128Z,13.80
2022-09-03T01:43:15.769Z,13.70
2022-09-03T01:45:51.160Z,13.70
2022-09-03T01:48:37.386Z,13.60
2022-09-03T01:51:17.916Z,13.60
2022-09-03T01:54:21.158Z,13.50
2022-09-03T01:57:35.661Z,13.50
2022-09-03T02:00:03.806Z,13.50
2022-09-03T02:02:31.629Z,13.40
2022-09-03T02:05:00.724Z,13.40
2022-09-03T02:07:37.957Z,13.40
2022-09-03T02:10:09.002Z,13.30
2022-09-03T02:12:38.676Z,13.30
2022-09-03T02:15:12.072Z,13.30
2022-09-03T02:17:41.628Z,13.30
2022-09-03T02:20:11.880Z,13.30
2022-09-03T02:22:40.045Z,13.30
2022-09-03T02:25:07.917Z,13.20
2022-09-03T02:27:34.969Z,13.20
2022-09-03T02:30:01.633Z,13.20
2022-09-03T02:32:28.698Z,13.10
2022-09-03T02:34:55.292Z,13.10
2022-09-03T02:37:22.610Z,13.10
2022-09-03T02:39:51.012Z,13.00
2022-09-03T02:42:18.806Z,13.00
2022-09-03T02:44:50.419Z,13.00
2022-09-03T02:47:20.521Z,13.00
2022-09-03T02:49:48.741Z,12.90
2022-09-03T02:52:16.709Z,12.90
2022-09-03T02:54:45.094Z,12.90
2022-09-03T02:57:15.055Z,12.90
2022-09-03T02:59:44.041Z,12.80
2022-09-03T03:02:11.733Z,12.80
2022-09-03T03:04:39.463Z,12.80
2022-09-03T03:07:06.960Z,12.70
2022-09-03T03:09:33.637Z,12.70
2022-09-03T03:12:01.108Z,12.70
2022-09-03T03:14:27.674Z,12.60
2022-09-03T03:16:54.278Z,12.60
2022-09-03T03:19:20.917Z,12.60
2022-09-03T03:21:47.557Z,12.60
2022-09-03T03:24:14.551Z,12.50
2022-09-03T03:26:41.489Z,12.50
2022-09-03T03:29:08.141Z,12.50
2022-09-03T03:31:34.778Z,12.50
2022-09-03T03:34:03.011Z,12.40
2022-09-03T03:36:33.979Z,12.40
2022-09-03T03:39:01.730Z,12.40
2022-09-03T03:41:33.440Z,12.40
2022-09-03T03:44:02.965Z,12.40
2022-09-03T03:46:34.668Z,12.30
2022-09-03T03:49:01.786Z,12.30
2022-09-03T03:51:28.539Z,12.30
2022-09-03T03:54:00.141Z,12.30
2022-09-03T03:56:28.718Z,12.30
2022-09-03T03:58:55.658Z,12.20
2022-09-03T04:01:25.127Z,12.20
2022-09-03T04:03:52.294Z,12.20
2022-09-03T04:06:21.597Z,12.20
2022-09-03T04:08:49.707Z,12.10
2022-09-03T04:11:19.217Z,12.10
2022-09-03T04:13:47.200Z,12.10
2022-09-03T04:16:22.917Z,12.10
2022-09-03T04:18:49.818Z,12.10
2022-09-03T04:21:22.321Z,12.00
2022-09-03T04:23:50.845Z,12.00
2022-09-03T04:26:22.721Z,12.00
2022-09-03T04:28:49.605Z,11.90
2022-09-03T04:31:18.558Z,11.90
2022-09-03T04:33:45.516Z,11.90
2022-09-03T04:36:15.274Z,11.90
2022-09-03T04:38:44.329Z,11.90
2022-09-03T04:41:14.475Z,11.90
2022-09-03T04:43:44.536Z,11.90
2022-09-03T04:46:17.689Z,11.90
2022-09-03T04:48:49.085Z,11.90
2022-09-03T04:51:17.676Z,11.80
2022-09-03T04:53:46.393Z,11.80
2022-09-03T04:56:15.225Z,11.70
2022-09-03T04:58:44.224Z,11.60
2022-09-03T05:01:12.578Z,11.50
2022-09-03T05:03:39.481Z,11.50
2022-09-03T05:06:06.330Z,11.40
2022-09-03T05:08:37.215Z,11.30
2022-09-03T05:11:05.004Z,11.20
2022-09-03T05:13:32.349Z,11.20
2022-09-03T05:16:01.053Z,11.20
2022-09-03T05:18:28.639Z,11.20
2022-09-03T05:21:09.513Z,11.20
2022-09-03T05:23:38.991Z,11.20
2022-09-03T05:26:10.898Z,11.30
2022-09-03T05:28:39.978Z,11.40
2022-09-03T05:31:10.030Z,11.50
2022-09-03T05:33:38.891Z,11.60
2022-09-03T05:36:09.201Z,11.70
2022-09-03T05:38:36.197Z,11.80
2022-09-03T05:41:05.545Z,11.90
2022-09-03T05:43:33.229Z,12.00
2022-09-03T05:46:11.421Z,12.20
2022-09-03T05:48:39.783Z,12.30
2022-09-03T05:51:09.048Z,12.60
2022-09-03T05:53:38.026Z,12.90
2022-09-03T05:56:07.082Z,13.00
2022-09-03T05:58:35.745Z,13.20
2022-09-03T06:01:13.069Z,13.30
2022-09-03T06:03:40.800Z,13.90
2022-09-03T06:06:07.893Z,15.00
2022-09-03T06:08:35.873Z,16.20
2022-09-03T06:11:04.217Z,16.80
2022-09-03T06:13:32.670Z,16.80
2022-09-03T06:16:01.168Z,17.40
2022-09-03T06:18:28.682Z,18.40
2022-09-03T06:21:03.338Z,19.10
2022-09-03T06:23:30.898Z,19.70
2022-09-03T06:26:05.443Z,20.20
2022-09-03T06:28:34.769Z,19.90
2022-09-03T06:31:06.033Z,19.20
2022-09-03T06:33:34.887Z,19.20
2022-09-03T06:36:05.668Z,19.90
2022-09-03T06:38:36.366Z,20.70
2022-09-03T06:41:06.305Z,21.30
2022-09-03T06:43:38.533Z,22.30
2022-09-03T06:46:09.481Z,24.00
2022-09-03T06:48:37.576Z,25.40
2022-09-03T06:51:07.677Z,26.10
2022-09-03T06:53:40.026Z,26.70
2022-09-03T06:56:12.636Z,27.30
2022-09-03T06:58:43.991Z,28.30
2022-09-03T07:01:16.504Z,28.70
2022-09-03T07:03:44.831Z,29.00
2022-09-03T07:06:14.733Z,29.00
2022-09-03T07:08:42.882Z,29.00
2022-09-03T07:11:12.181Z,29.00
2022-09-03T07:13:41.963Z,28.80
2022-09-03T07:16:10.801Z,29.40
2022-09-03T07:18:38.255Z,30.00
2022-09-03T07:21:08.053Z,30.10
2022-09-03T07:23:35.800Z,30.30
2022-09-03T07:26:08.314Z,30.80
2022-09-03T07:28:37.292Z,31.10
2022-09-03T07:31:12.829Z,30.50
2022-09-03T07:33:39.549Z,30.80
2022-09-03T07:36:12.243Z,30.40
2022-09-03T07:38:38.832Z,30.90
2022-09-03T07:41:08.070Z,31.30
2022-09-03T07:43:48.917Z,31.50
2022-09-03T07:46:23.154Z,31.80
2022-09-03T07:48:55.941Z,32.00
2022-09-03T07:51:28.204Z,32.70
2022-09-03T07:53:57.621Z,33.10
2022-09-03T07:56:25.096Z,33.20
2022-09-03T07:58:51.786Z,33.10
2022-09-03T08:01:20.995Z,32.80
2022-09-03T08:03:49.765Z,32.70
2022-09-03T08:06:18.724Z,32.60
2022-09-03T08:08:45.845Z,32.40
2022-09-03T08:11:17.926Z,32.50
2022-09-03T08:13:48.109Z,32.90
2022-09-03T08:16:18.417Z,33.10
2022-09-03T08:18:47.366Z,33.50
2022-09-03T08:21:16.806Z,33.50
2022-09-03T08:23:46.680Z,33.90
2022-09-03T08:26:14.936Z,34.20
2022-09-03T08:28:43.142Z,34.40
2022-09-03T08:31:12.792Z,34.70
2022-09-03T08:33:42.895Z,34.40
2022-09-03T08:36:22.337Z,34.30
2022-09-03T08:38:54.749Z,34.70
2022-09-03T08:41:46.164Z,34.60
2022-09-03T08:44:37.336Z,34.20
2022-09-03T08:47:11.840Z,34.70
2022-09-03T08:50:18.119Z,35.20
2022-09-03T08:52:50.105Z,35.10
2022-09-03T08:55:34.409Z,34.90
2022-09-03T08:58:15.358Z,34.70
2022-09-03T09:01:03.435Z,34.70
2022-09-03T09:03:35.348Z,34.70
2022-09-03T09:06:30.214Z,34.50
2022-09-03T09:09:18.960Z,34.60
2022-09-03T09:12:16.259Z,34.90
2022-09-03T09:15:14.017Z,35.00
2022-09-03T09:18:10.838Z,34.30
2022-09-03T09:21:02.322Z,33.90
2022-09-03T09:23:49.024Z,33.80
2022-09-03T09:26:19.002Z,34.00
2022-09-03T09:28:47.740Z,34.40
2022-09-03T09:31:18.992Z,34.50
2022-09-03T09:33:46.388Z,34.10
2022-09-03T09:36:16.985Z,32.90
2022-09-03T09:38:48.432Z,32.20
2022-09-03T09:41:18.548Z,31.50
2022-09-03T09:43:47.790Z,31.10
2022-09-03T09:46:19.885Z,30.70
2022-09-03T09:48:58.677Z,30.50
2022-09-03T09:51:34.361Z,29.90
2022-09-03T09:54:02.206Z,29.50
2022-09-03T09:56:29.438Z,29.40
2022-09-03T09:59:10.810Z,29.20
2022-09-03T10:01:39.693Z,29.20
2022-09-03T10:04:23.338Z,29.20
2022-09-03T10:07:15.694Z,29.40
2022-09-03T10:09:42.303Z,29.40
2022-09-03T10:12:23.296Z,29.10
2022-09-03T10:15:03.619Z,29.10
2022-09-03T10:17:55.381Z,29.00
2022-09-03T10:20:30.858Z,28.80
2022-09-03T10:23:18.253Z,28.80
2022-09-03T10:26:07.061Z,28.40
2022-09-03T10:28:41.550Z,28.00
2022-09-03T10:31:42.177Z,27.90
2022-09-03T10:34:18.611Z,27.70
2022-09-03T10:37:02.388Z,27.70
2022-09-03T10:39:52.444Z,27.60
2022-09-03T10:42:30.389Z,27.70
2022-09-03T10:45:18.020Z,27.80
2022-09-03T10:48:11.986Z,27.90
2022-09-03T10:50:38.671Z,28.00
2022-09-03T10:53:29.913Z,27.70
2022-09-03T10:56:08.852Z,27.60
2022-09-03T10:59:03.536Z,28.20
2022-09-03T11:02:03.245Z,28.80
2022-09-03T11:04:49.337Z,29.30
2022-09-03T11:07:21.334Z,29.30
2022-09-03T11:10:04.298Z,29.20
2022-09-03T11:12:40.550Z,29.00
2022-09-03T11:15:13.468Z,28.90
2022-09-03T11:17:48.972Z,28.60
2022-09-03T11:20:26.068Z,28.10
2022-09-03T11:23:01.329Z,28.00
2022-09-03T11:25:37.966Z,28.00
2022-09-03T11:28:19.279Z,28.10
2022-09-03T11:31:07.485Z,28.00
2022-09-03T11:33:40.888Z,27.90
2022-09-03T11:36:07.880Z,27.80
2022-09-03T11:38:35.130Z,27.70
2022-09-03T11:41:16.708Z,27.70
2022-09-03T11:43:44.220Z,27.70
2022-09-03T11:46:23.548Z,27.80
2022-09-03T11:48:52.181Z,27.90
2022-09-03T11:51:20.026Z,28.10
2022-09-03T11:54:16.045Z,28.40
2022-09-03T11:56:43.399Z,28.70
2022-09-03T11:59:13.729Z,28.60
2022-09-03T12:01:47.212Z,28.30
2022-09-03T12:04:17.995Z,28.10
2022-09-03T12:07:06.457Z,28.10
2022-09-03T12:09:54.908Z,28.00
2022-09-03T12:12:54.973Z,28.10
2022-09-03T12:15:36.979Z,28.30
2022-09-03T12:18:20.146Z,28.00
2022-09-03T12:20:52.777Z,27.90
2022-09-03T12:23:35.421Z,27.90
2022-09-03T12:26:07.917Z,28.00
2022-09-03T12:28:41.291Z,28.00
2022-09-03T12:31:22.753Z,28.10
2022-09-03T12:34:01.025Z,28.00
2022-09-03T12:36:38.165Z,27.90
2022-09-03T12:39:16.440Z,27.80
2022-09-03T12:42:09.133Z,27.70
2022-09-03T12:44:35.674Z,27.60
2022-09-03T12:50:01.337Z,27.60
2022-09-03T12:52:39.063Z,27.40
2022-09-03T12:55:27.466Z,27.40
2022-09-03T12:58:19.610Z,27.50
2022-09-03T13:01:00.477Z,27.30
2022-09-03T13:03:38.837Z,27.20
2022-09-03T13:06:13.730Z,27.00
2022-09-03T13:08:45.989Z,27.00
2022-09-03T13:11:17.607Z,27.20
2022-09-03T13:14:22.145Z,27.30
2022-09-03T13:17:08.208Z,27.20
2022-09-03T13:20:02.616Z,27.00
2022-09-03T13:22:47.930Z,26.80
2022-09-03T13:25:14.719Z,26.90
2022-09-03T13:28:12.706Z,26.90
2022-09-03T13:30:48.331Z,26.70
2022-09-03T13:33:20.517Z,26.70
2022-09-03T13:35:49.620Z,26.60
2022-09-03T13:38:41.645Z,26.50
2022-09-03T13:41:20.277Z,26.50
2022-09-03T13:44:03.026Z,26.70
2022-09-03T13:46:38.410Z,26.80
2022-09-03T13:49:44.005Z,26.80
2022-09-03T13:52:22.339Z,26.70
2022-09-03T13:54:55.924Z,26.60
2022-09-03T13:57:45.850Z,26.60
2022-09-03T14:00:22.929Z,26.50
2022-09-03T14:03:27.992Z,26.40
2022-09-03T14:06:27.188Z,26.30
2022-09-03T14:09:02.623Z,26.00
2022-09-03T14:12:06.680Z,25.90
2022-09-03T14:15:00.778Z,25.80
2022-09-03T14:17:47.889Z,25.60
2022-09-03T14:20:25.485Z,25.80
2022-09-03T14:23:26.813Z,26.00
2022-09-03T14:26:00.238Z,25.90
2022-09-03T14:28:36.160Z,26.00
2022-09-03T14:31:28.014Z,25.90
2022-09-03T14:34:19.045Z,25.90
2022-09-03T14:37:03.217Z,25.90
2022-09-03T14:39:45.273Z,25.80
2022-09-03T14:42:36.886Z,25.90
2022-09-03T14:45:15.710Z,26.00
2022-09-03T14:47:54.195Z,25.80
2022-09-03T14:50:45.378Z,25.90
2022-09-03T14:53:17.914Z,25.80
2022-09-03T14:56:20.749Z,25.60
2022-09-03T14:59:07.733Z,25.40
2022-09-03T15:01:38.896Z,25.20
2022-09-03T15:04:35.989Z,25.20
2022-09-03T15:07:35.818Z,25.00
2022-09-03T15:10:27.993Z,24.90
2022-09-03T15:13:22.974Z,24.90
2022-09-03T15:16:02.205Z,24.90
2022-09-03T15:18:40.985Z,24.80
2022-09-03T15:21:36.648Z,24.70
2022-09-03T15:24:42.998Z,24.60
2022-09-03T15:27:31.836Z,24.60
2022-09-03T15:30:08.000Z,24.50
2022-09-03T15:32:50.234Z,24.40
2022-09-03T15:35:30.491Z,24.40
2022-09-03T15:38:02.128Z,24.30
2022-09-03T15:40:45.450Z,24.20
2022-09-03T15:43:33.681Z,24.20
2022-09-03T15:46:13.522Z,24.20
2022-09-03T15:48:59.781Z,24.10
2022-09-03T15:51:56.486Z,24.00
2022-09-03T15:54:43.962Z,24.10
2022-09-03T15:57:36.486Z,24.00
2022-09-03T16:00:10.193Z,24.00
2022-09-03T16:03:08.788Z,23.90
2022-09-03T16:05:46.581Z,23.90
2022-09-03T16:08:19.287Z,23.90
2022-09-03T16:11:08.680Z,23.90
2022-09-03T16:13:59.993Z,23.80
2022-09-03T16:16:52.322Z,23.80
2022-09-03T16:19:45.312Z,23.70
2022-09-03T16:22:28.401Z,23.70
2022-09-03T16:25:13.330Z,23.60
2022-09-03T16:27:52.222Z,23.40
2022-09-03T16:30:53.537Z,23.40
2022-09-03T16:33:34.604Z,23.30
2022-09-03T16:36:16.634Z,23.20
2022-09-03T16:38:55.293Z,23.20
2022-09-03T16:42:04.970Z,23.10
2022-09-03T16:45:05.517Z,23.10
2022-09-03T16:47:55.423Z,23.00
2022-09-03T16:50:40.662Z,23.00
2022-09-03T16:53:24.044Z,22.90
2022-09-03T16:56:24.392Z,22.90
2022-09-03T16:59:20.649Z,22.90
2022-09-03T17:02:39.287Z,22.90
2022-09-03T17:05:26.719Z,22.80
2022-09-03T17:08:07.029Z,22.80
2022-09-03T17:10:45.848Z,22.70
2022-09-03T17:13:49.938Z,22.70
2022-09-03T17:16:40.567Z,22.60
2022-09-03T17:19:10.292Z,22.60
2022-09-03T17:22:01.366Z,22.50
2022-09-03T17:24:36.656Z,22.40
2022-09-03T17:27:29.150Z,22.40
2022-09-03T17:30:17.498Z,22.40
2022-09-03T17:32:51.137Z,22.30
2022-09-03T17:35:51.485Z,22.30
2022-09-03T17:38:43.665Z,22.20
2022-09-03T17:41:35.355Z,22.10
2022-09-03T17:44:11.210Z,22.00
2022-09-03T17:47:12.390Z,21.80
2022-09-03T17:49:50.394Z,21.70
2022-09-03T17:52:57.050Z,21.60
2022-09-03T17:55:37.192Z,21.50
2022-09-03T17:58:25.817Z,21.30
2022-09-03T18:01:04.942Z,21.20
2022-09-03T18:03:55.353Z,21.10
2022-09-03T18:06:37.685Z,21.00
2022-09-03T18:09:13.202Z,20.90
2022-09-03T18:12:13.105Z,20.80
2022-09-03T18:15:13.621Z,20.70
2022-09-03T18:17:52.359Z,20.70
2022-09-03T18:20:39.905Z,20.60
2022-09-03T18:23:50.552Z,20.60
2022-09-03T18:26:44.598Z,20.50
2022-09-03T18:29:41.173Z,20.50
2022-09-03T18:32:26.608Z,20.50
2022-09-03T18:35:12.058Z,20.40
2022-09-03T18:37:57.876Z,20.40
2022-09-03T18:40:50.690Z,20.40
2022-09-03T18:43:49.984Z,20.30
2022-09-03T18:48:00.856Z,20.20
2022-09-03T18:50:03.563Z,20.10
2022-09-03T18:53:08.829Z,20.00
2022-09-03T18:56:23.556Z,20.00
2022-09-03T18:59:17.900Z,19.90
2022-09-03T19:02:03.814Z,19.90
2022-09-03T19:05:27.440Z,19.80
2022-09-03T19:08:39.559Z,19.80
2022-09-03T19:11:43.200Z,19.80
2022-09-03T19:14:44.337Z,19.70
2022-09-03T19:17:37.860Z,19.70
2022-09-03T19:20:49.974Z,19.60
2022-09-03T19:23:35.526Z,19.50
2022-09-03T19:26:50.690Z,19.40
2022-09-03T19:30:06.036Z,19.40
2022-09-03T19:33:11.820Z,19.30
2022-09-03T19:36:23.861Z,19.20
2022-09-03T19:39:27.563Z,19.10
2022-09-03T19:42:51.688Z,19.10
2022-09-03T19:45:58.780Z,19.00
2022-09-03T19:49:02.614Z,19.00
2022-09-03T19:51:56.130Z,18.90
2022-09-03T19:54:43.376Z,18.90
2022-09-03T19:57:31.556Z,18.80
2022-09-03T20:00:17.691Z,18.80
2022-09-03T20:03:16.750Z,18.80
2022-09-03T20:06:02.389Z,18.70
2022-09-03T20:08:49.330Z,18.60
2022-09-03T20:11:21.286Z,18.60
2022-09-03T20:14:06.625Z,18.50
2022-09-03T20:17:04.958Z,18.50
2022-09-03T20:20:25.138Z,18.40
2022-09-03T20:23:20.532Z,18.30
2022-09-03T20:26:10.808Z,18.20
2022-09-03T20:28:46.517Z,18.10
2022-09-03T20:31:28.111Z,18.10
2022-09-03T20:34:09.162Z,18.10
2022-09-03T20:37:12.181Z,18.10
2022-09-03T20:40:06.677Z,18.00
2022-09-03T20:43:10.540Z,17.90
2022-09-03T20:46:09.977Z,17.90
2022-09-03T20:48:56.000Z,17.80
2022-09-03T20:52:06.036Z,17.80
2022-09-03T20:54:59.551Z,17.80
2022-09-03T20:57:42.354Z,17.80
2022-09-03T21:00:14.972Z,17.70
2022-09-03T21:03:07.353Z,17.60
2022-09-03T21:06:12.114Z,17.50
2022-09-03T21:09:00.896Z,17.50
2022-09-03T21:11:45.519Z,17.40
2022-09-03T21:14:34.078Z,17.30
2022-09-03T21:17:04.821Z,17.30
2022-09-03T21:19:52.740Z,17.20
2022-09-03T21:23:16.480Z,17.20
2022-09-03T21:25:49.198Z,17.10
2022-09-03T21:28:28.015Z,17.00
2022-09-03T21:30:59.810Z,17.00
2022-09-03T21:33:31.501Z,17.00
2022-09-03T21:36:12.248Z,16.90
2022-09-03T21:38:58.113Z,16.90
2022-09-03T21:41:36.330Z,16.90
2022-09-03T21:44:13.157Z,16.80
2022-09-03T21:47:12.753Z,16.70
2022-09-03T21:49:49.393Z,16.70
2022-09-03T21:52:21.580Z,16.60
2022-09-03T21:54:48.398Z,16.60
2022-09-03T21:57:41.706Z,16.60
2022-09-03T22:00:21.585Z,16.60
2022-09-03T22:02:49.940Z,16.60
2022-09-03T22:05:17.541Z,16.60
2022-09-03T22:07:58.956Z,16.50
2022-09-03T22:10:52.902Z,16.50
2022-09-03T22:13:31.161Z,16.50
2022-09-03T22:16:23.546Z,16.50
2022-09-03T22:18:50.315Z,16.40
2022-09-03T22:21:29.102Z,16.40
2022-09-03T22:24:07.266Z,16.40
2022-09-03T22:26:44.977Z,16.30
2022-09-03T22:29:49.238Z,16.30
2022-09-03T22:32:54.002Z,16.20
2022-09-03T22:35:41.237Z,16.20
2022-09-03T22:38:37.273Z,16.10
2022-09-03T22:41:25.385Z,16.10
2022-09-03T22:44:01.214Z,16.00
2022-09-03T22:46:40.849Z,16.00
2022-09-03T22:49:15.151Z,15.90
2022-09-03T22:52:00.593Z,15.90
2022-09-03T22:54:42.256Z,15.80
2022-09-03T22:57:10.752Z,15.80
2022-09-03T22:59:42.065Z,15.70
2022-09-03T23:02:08.733Z,15.70
2022-09-03T23:05:03.157Z,15.70
2022-09-03T23:07:54.625Z,15.70
2022-09-03T23:10:26.845Z,15.60
2022-09-03T23:13:07.859Z,15.60
2022-09-03T23:15:38.399Z,15.50
2022-09-03T23:18:26.853Z,15.50
2022-09-03T23:21:07.898Z,15.40
2022-09-03T23:23:44.286Z,15.40
2022-09-03T23:26:27.933Z,15.30
2022-09-03T23:29:04.877Z,15.30
2022-09-03T23:31:34.930Z,15.30
2022-09-03T23:34:01.875Z,15.30
2022-09-03T23:36:57.735Z,15.20
2022-09-03T23:39:39.847Z,15.20
2022-09-03T23:42:32.773Z,15.20
2022-09-03T23:45:16.506Z,15.20
2022-09-03T23:47:54.116Z,15.10
2022-09-03T23:50:32.601Z,15.00
2022-09-03T23:53:17.628Z,15.00
2022-09-03T23:56:13.500Z,14.90
2022-09-03T23:58:58.740Z,14.90
